createdAt,value
2023-01-17T00:01:34.251Z,100.00
2023-01-17T00:04:20.420Z,100.00
2023-01-17T00:07:05.675Z,100.00
2023-01-17T00:09:50.683Z,100.00
2023-01-17T00:12:17.969Z,100.00
2023-01-17T00:14:44.898Z,100.00
2023-01-17T00:17:11.524Z,100.00
2023-01-17T00:19:57.124Z,100.00
2023-01-17T00:22:48.170Z,100.00
2023-01-17T00:25:45.652Z,100.00
2023-01-17T00:28:12.706Z,100.00
2023-01-17T00:30:39.276Z,100.00
2023-01-17T00:33:06.103Z,100.00
2023-01-17T00:35:33.862Z,100.00
2023-01-17T00:38:05.085Z,100.00
2023-01-17T00:40:33.021Z,100.00
2023-01-17T00:43:18.328Z,100.00
2023-01-17T00:46:04.699Z,100.00
2023-01-17T00:48:50.509Z,100.00
2023-01-17T00:51:35.786Z,100.00
2023-01-17T00:54:21.403Z,100.00
2023-01-17T00:57:06.557Z,100.00
2023-01-17T00:59:51.859Z,100.00
2023-01-17T01:02:37.741Z,100.00
2023-01-17T01:05:23.674Z,100.00
2023-01-17T01:08:08.887Z,100.00
2023-01-17T01:10:54.321Z,100.00
2023-01-17T01:13:46.017Z,100.00
2023-01-17T01:16:32.617Z,100.00
2023-01-17T01:19:18.109Z,100.00
2023-01-17T01:22:03.618Z,100.00
2023-01-17T01:24:48.899Z,100.00
2023-01-17T01:27:34.585Z,100.00
2023-01-17T01:30:19.844Z,100.00
2023-01-17T01:33:05.134Z,100.00
2023-01-17T01:35:31.702Z,100.00
2023-01-17T01:37:58.325Z,100.00
2023-01-17T01:40:25.056Z,100.00
2023-01-17T01:42:53.092Z,100.00
2023-01-17T01:45:25.401Z,100.00
2023-01-17T01:48:05.601Z,100.00
2023-01-17T01:50:35.046Z,100.00
2023-01-17T01:53:04.613Z,100.00
2023-01-17T01:55:34.603Z,100.00
2023-01-17T01:58:22.148Z,100.00
2023-01-17T02:00:49.343Z,100.00
2023-01-17T02:03:29.402Z,100.00
2023-01-17T02:06:00.868Z,100.00
2023-01-17T02:08:28.019Z,100.00
2023-01-17T02:10:56.158Z,100.00
2023-01-17T02:13:22.791Z,100.00
2023-01-17T02:16:14.047Z,100.00
2023-01-17T02:19:26.312Z,100.00
2023-01-17T02:21:58.884Z,100.00
2023-01-17T02:24:45.001Z,100.00
2023-01-17T02:27:11.515Z,100.00
2023-01-17T02:29:56.726Z,100.00
2023-01-17T02:32:32.530Z,100.00
2023-01-17T02:35:20.347Z,100.00
2023-01-17T02:38:00.524Z,100.00
2023-01-17T02:40:33.006Z,100.00
2023-01-17T02:43:08.267Z,100.00
2023-01-17T02:45:34.978Z,100.00
2023-01-17T02:48:01.738Z,100.00
2023-01-17T02:50:39.517Z,100.00
2023-01-17T02:53:27.747Z,100.00
2023-01-17T02:56:14.588Z,100.00
2023-01-17T02:59:05.720Z,100.00
2023-01-17T03:02:00.553Z,100.00
2023-01-17T03:04:27.336Z,100.00
2023-01-17T03:06:58.769Z,100.00
2023-01-17T03:09:26.883Z,100.00
2023-01-17T03:11:53.756Z,100.00
2023-01-17T03:14:20.519Z,100.00
2023-01-17T03:16:47.532Z,100.00
2023-01-17T03:19:14.756Z,100.00
2023-01-17T03:21:41.362Z,100.00
2023-01-17T03:24:08.244Z,100.00
2023-01-17T03:26:34.875Z,100.00
2023-01-17T03:29:02.391Z,100.00
2023-01-17T03:31:29.008Z,100.00
2023-01-17T03:33:55.611Z,100.00
2023-01-17T03:36:22.243Z,100.00
2023-01-17T03:38:48.841Z,100.00
2023-01-17T03:41:15.388Z,100.00
2023-01-17T03:43:41.926Z,100.00
2023-01-17T03:46:21.901Z,100.00
2023-01-17T03:48:48.587Z,100.00
2023-01-17T03:51:16.143Z,100.00
2023-01-17T03:53:43.033Z,100.00
2023-01-17T03:56:09.623Z,100.00
2023-01-17T03:58:36.161Z,100.00
2023-01-17T04:01:02.829Z,100.00
2023-01-17T04:03:29.651Z,100.00
2023-01-17T04:05:56.431Z,100.00
2023-01-17T04:08:23.177Z,100.00
2023-01-17T04:10:49.787Z,100.00
2023-01-17T04:13:16.998Z,100.00
2023-01-17T04:15:48.370Z,100.00
2023-01-17T04:18:17.279Z,100.00
2023-01-17T04:20:44.324Z,100.00
2023-01-17T04:23:11.102Z,100.00
2023-01-17T04:25:37.718Z,100.00
2023-01-17T04:28:05.234Z,100.00
2023-01-17T04:30:33.031Z,100.00
2023-01-17T04:33:00.194Z,100.00
2023-01-17T04:35:28.931Z,100.00
2023-01-17T04:37:55.558Z,100.00
2023-01-17T04:40:22.319Z,100.00
2023-01-17T04:42:48.922Z,100.00
2023-01-17T04:45:16.454Z,100.00
2023-01-17T04:47:43.270Z,100.00
2023-01-17T04:50:13.134Z,100.00
2023-01-17T04:52:40.332Z,100.00
2023-01-17T04:55:07.620Z,100.00
2023-01-17T04:57:34.205Z,100.00
2023-01-17T05:00:00.901Z,100.00
2023-01-17T05:02:27.544Z,100.00
2023-01-17T05:04:54.196Z,100.00
2023-01-17T05:07:20.887Z,100.00
2023-01-17T05:09:47.692Z,100.00
2023-01-17T05:12:14.923Z,100.00
2023-01-17T05:14:41.450Z,100.00
2023-01-17T05:17:08.200Z,100.00
2023-01-17T05:19:34.827Z,100.00
2023-01-17T05:22:04.034Z,100.00
2023-01-17T05:24:32.248Z,100.00
2023-01-17T05:27:03.076Z,100.00
2023-01-17T05:29:30.661Z,100.00
2023-01-17T05:31:57.791Z,100.00
2023-01-17T05:34:24.955Z,100.00
2023-01-17T05:36:51.590Z,100.00
2023-01-17T05:39:18.299Z,100.00
2023-01-17T05:41:46.183Z,100.00
2023-01-17T05:44:13.159Z,100.00
2023-01-17T05:46:40.721Z,100.00
2023-01-17T05:49:07.518Z,100.00
2023-01-17T05:51:37.776Z,100.00
2023-01-17T05:54:05.091Z,100.00
2023-01-17T05:56:31.957Z,100.00
2023-01-17T05:58:58.574Z,100.00
2023-01-17T06:01:25.177Z,100.00
2023-01-17T06:03:51.939Z,100.00
2023-01-17T06:06:18.537Z,100.00
2023-01-17T06:08:45.048Z,100.00
2023-01-17T06:11:11.613Z,100.00
2023-01-17T06:13:38.305Z,100.00
2023-01-17T06:16:05.160Z,100.00
2023-01-17T06:18:32.155Z,100.00
2023-01-17T06:20:58.853Z,100.00
2023-01-17T06:23:26.066Z,100.00
2023-01-17T06:25:52.719Z,100.00
2023-01-17T06:28:21.868Z,100.00
2023-01-17T06:30:49.119Z,100.00
2023-01-17T06:33:16.081Z,100.00
2023-01-17T06:35:50.537Z,100.00
2023-01-17T06:38:17.394Z,100.00
2023-01-17T06:40:44.024Z,100.00
2023-01-17T06:43:10.681Z,100.00
2023-01-17T06:45:37.398Z,100.00
2023-01-17T06:48:05.356Z,100.00
2023-01-17T06:50:33.393Z,100.00
2023-01-17T06:53:04.997Z,100.00
2023-01-17T06:55:33.743Z,100.00
2023-01-17T06:58:02.511Z,100.00
2023-01-17T07:00:31.069Z,100.00
2023-01-17T07:02:57.896Z,100.00
2023-01-17T07:05:24.580Z,100.00
2023-01-17T07:07:51.220Z,100.00
2023-01-17T07:10:17.952Z,100.00
2023-01-17T07:12:44.563Z,100.00
2023-01-17T07:15:12.013Z,100.00
2023-01-17T07:17:38.979Z,100.00
2023-01-17T07:20:06.414Z,100.00
2023-01-17T07:22:33.061Z,100.00
2023-01-17T07:24:59.671Z,100.00
2023-01-17T07:27:27.717Z,100.00
2023-01-17T07:29:54.505Z,100.00
2023-01-17T07:32:21.259Z,100.00
2023-01-17T07:34:48.306Z,100.00
2023-01-17T07:37:15.414Z,100.00
2023-01-17T07:39:42.416Z,100.00
2023-01-17T07:42:09.332Z,100.00
2023-01-17T07:44:36.210Z,100.00
2023-01-17T07:47:04.271Z,100.00
2023-01-17T07:49:31.105Z,100.00
2023-01-17T07:51:57.719Z,100.00
2023-01-17T07:54:24.350Z,100.00
2023-01-17T07:56:50.951Z,100.00
2023-01-17T07:59:18.170Z,100.00
2023-01-17T08:01:44.906Z,100.00
2023-01-17T08:04:11.785Z,100.00
2023-01-17T08:06:42.104Z,100.00
2023-01-17T08:09:08.730Z,100.00
2023-01-17T08:11:35.312Z,100.00
2023-01-17T08:14:01.885Z,100.00
2023-01-17T08:16:29.624Z,100.00
2023-01-17T08:18:56.562Z,100.00
2023-01-17T08:21:23.654Z,100.00
2023-01-17T08:23:51.645Z,100.00
2023-01-17T08:26:22.872Z,100.00
2023-01-17T08:28:55.815Z,100.00
2023-01-17T08:31:23.254Z,100.00
2023-01-17T08:33:50.802Z,100.00
2023-01-17T08:36:17.776Z,100.00
2023-01-17T08:38:44.419Z,100.00
2023-01-17T08:41:12.935Z,100.00
2023-01-17T08:43:39.910Z,100.00
2023-01-17T08:46:06.591Z,100.00
2023-01-17T08:48:33.260Z,100.00
2023-01-17T08:51:01.676Z,100.00
2023-01-17T08:53:28.557Z,100.00
2023-01-17T08:55:59.877Z,100.00
2023-01-17T08:58:30.323Z,100.00
2023-01-17T09:01:05.857Z,100.00
2023-01-17T09:03:33.809Z,100.00
2023-01-17T09:06:07.768Z,100.00
2023-01-17T09:08:34.899Z,100.00
2023-01-17T09:11:10.335Z,100.00
2023-01-17T09:13:37.421Z,100.00
2023-01-17T09:16:04.488Z,100.00
2023-01-17T09:18:32.341Z,100.00
2023-01-17T09:21:01.897Z,100.00
2023-01-17T09:23:29.874Z,100.00
2023-01-17T09:25:58.847Z,100.00
2023-01-17T09:28:26.939Z,100.00
2023-01-17T09:30:54.215Z,100.00
2023-01-17T09:33:21.615Z,100.00
2023-01-17T09:35:48.247Z,100.00
2023-01-17T09:38:14.929Z,100.00
2023-01-17T09:40:47.368Z,100.00
2023-01-17T09:43:40.855Z,100.00
2023-01-17T09:46:22.468Z,100.00
2023-01-17T09:49:01.908Z,100.00
2023-01-17T09:51:28.613Z,100.00
2023-01-17T09:53:55.660Z,100.00
2023-01-17T09:56:31.825Z,100.00
2023-01-17T09:59:01.506Z,100.00
2023-01-17T10:01:40.808Z,100.00
2023-01-17T10:04:38.997Z,100.00
2023-01-17T10:07:33.543Z,100.00
2023-01-17T10:10:18.873Z,100.00
2023-01-17T10:13:17.696Z,100.00
2023-01-17T10:15:53.175Z,100.00
2023-01-17T10:18:30.013Z,100.00
2023-01-17T10:21:14.637Z,100.00
2023-01-17T10:24:28.433Z,100.00
2023-01-17T10:26:58.699Z,100.00
2023-01-17T10:29:30.854Z,100.00
2023-01-17T10:32:01.574Z,99.82
2023-01-17T10:34:30.708Z,100.00
2023-01-17T10:37:11.890Z,100.00
2023-01-17T10:39:39.341Z,100.00
2023-01-17T10:42:44.200Z,100.00
2023-01-17T10:45:25.571Z,99.40
2023-01-17T10:48:02.045Z,100.00
2023-01-17T10:50:33.297Z,100.00
2023-01-17T10:53:10.869Z,100.00
2023-01-17T10:55:53.327Z,99.08
2023-01-17T10:58:20.349Z,99.73
2023-01-17T11:01:01.693Z,98.95
2023-01-17T11:03:29.580Z,97.46
2023-01-17T11:06:20.014Z,97.76
2023-01-17T11:08:58.016Z,98.78
2023-01-17T11:11:30.738Z,98.70
2023-01-17T11:14:04.646Z,97.27
2023-01-17T11:16:32.329Z,97.40
2023-01-17T11:19:36.109Z,96.96
2023-01-17T11:22:06.152Z,97.30
2023-01-17T11:24:37.748Z,96.56
2023-01-17T11:27:22.823Z,96.45
2023-01-17T11:30:04.337Z,95.91
2023-01-17T11:32:34.865Z,96.82
2023-01-17T11:35:07.983Z,97.29
2023-01-17T11:37:36.037Z,96.87
2023-01-17T11:40:28.452Z,96.81
2023-01-17T11:43:06.070Z,97.26
2023-01-17T11:45:34.323Z,96.22
2023-01-17T11:48:10.988Z,95.66
2023-01-17T11:50:58.501Z,96.46
2023-01-17T11:53:28.263Z,96.80
2023-01-17T11:56:11.175Z,97.31
2023-01-17T11:58:41.777Z,96.77
2023-01-17T12:01:37.131Z,96.87
2023-01-17T12:04:24.189Z,96.05
2023-01-17T12:07:10.906Z,96.53
2023-01-17T12:09:46.257Z,95.48
2023-01-17T12:12:56.361Z,96.05
2023-01-17T12:15:30.111Z,96.50
2023-01-17T12:18:16.540Z,96.31
2023-01-17T12:20:59.339Z,96.00
2023-01-17T12:23:49.114Z,96.20
2023-01-17T12:26:45.623Z,96.29
2023-01-17T12:29:43.516Z,94.93
2023-01-17T12:32:35.072Z,93.99
2023-01-17T12:35:04.699Z,93.62
2023-01-17T12:37:35.062Z,93.04
2023-01-17T12:40:27.285Z,92.84
2023-01-17T12:43:21.867Z,92.69
2023-01-17T12:45:51.231Z,92.77
2023-01-17T12:48:19.738Z,92.83
2023-01-17T12:51:05.659Z,91.35
2023-01-17T12:53:40.422Z,90.19
2023-01-17T12:56:25.382Z,88.47
2023-01-17T12:58:56.580Z,89.01
2023-01-17T13:01:39.706Z,88.60
2023-01-17T13:04:16.836Z,89.20
2023-01-17T13:06:46.535Z,89.70
2023-01-17T13:09:19.108Z,89.87
2023-01-17T13:11:56.766Z,88.34
2023-01-17T13:14:23.699Z,88.58
2023-01-17T13:16:58.628Z,90.26
2023-01-17T13:19:25.202Z,87.75
2023-01-17T13:21:52.680Z,88.31
2023-01-17T13:24:27.918Z,86.87
2023-01-17T13:27:30.607Z,87.86
2023-01-17T13:30:17.886Z,86.91
2023-01-17T13:33:01.504Z,87.10
2023-01-17T13:35:49.205Z,84.60
2023-01-17T13:38:30.423Z,83.34
2023-01-17T13:41:07.655Z,84.83
2023-01-17T13:43:40.423Z,84.05
2023-01-17T13:46:07.498Z,84.85
2023-01-17T13:48:38.515Z,86.49
2023-01-17T13:51:10.329Z,86.45
2023-01-17T13:53:37.091Z,84.35
2023-01-17T13:56:19.026Z,85.72
2023-01-17T13:58:54.809Z,85.56
2023-01-17T14:01:24.698Z,85.38
2023-01-17T14:04:32.263Z,86.01
2023-01-17T14:07:26.357Z,85.36
2023-01-17T14:09:53.219Z,84.56
2023-01-17T14:12:21.172Z,85.98
2023-01-17T14:14:51.147Z,84.19
2023-01-17T14:17:22.717Z,82.73
2023-01-17T14:19:55.848Z,85.41
2023-01-17T14:22:28.511Z,83.74
2023-01-17T14:25:20.065Z,84.44
2023-01-17T14:27:53.632Z,83.75
2023-01-17T14:30:33.883Z,84.25
2023-01-17T14:33:04.767Z,83.72
2023-01-17T14:35:54.140Z,83.47
2023-01-17T14:38:26.927Z,82.81
2023-01-17T14:41:03.545Z,83.39
2023-01-17T14:43:33.093Z,83.01
2023-01-17T14:46:01.751Z,80.46
2023-01-17T14:48:28.961Z,80.98
2023-01-17T14:50:59.956Z,82.47
2023-01-17T14:53:31.420Z,81.34
2023-01-17T14:56:12.049Z,81.33
2023-01-17T14:58:41.724Z,81.33
2023-01-17T15:01:21.750Z,79.41
2023-01-17T15:03:51.413Z,82.14
2023-01-17T15:06:17.879Z,80.74
2023-01-17T15:08:45.071Z,80.93
2023-01-17T15:11:19.745Z,80.39
2023-01-17T15:13:49.839Z,80.57
2023-01-17T15:16:22.172Z,81.54
2023-01-17T15:18:49.531Z,80.67
2023-01-17T15:21:19.471Z,81.63
2023-01-17T15:23:53.095Z,82.55
2023-01-17T15:26:23.432Z,82.15
2023-01-17T15:28:50.808Z,81.85
2023-01-17T15:31:39.782Z,81.96
2023-01-17T15:34:08.923Z,82.44
2023-01-17T15:36:35.985Z,82.82
2023-01-17T15:39:07.468Z,81.74
2023-01-17T15:41:38.060Z,82.27
2023-01-17T15:44:05.889Z,81.93
2023-01-17T15:46:42.694Z,82.34
2023-01-17T15:49:19.481Z,83.61
2023-01-17T15:51:55.137Z,83.90
2023-01-17T15:54:28.837Z,84.00
2023-01-17T15:57:02.745Z,84.26
2023-01-17T15:59:54.818Z,84.78
2023-01-17T16:02:30.026Z,84.76
2023-01-17T16:04:57.611Z,84.73
2023-01-17T16:07:34.074Z,85.06
2023-01-17T16:10:35.613Z,85.57
2023-01-17T16:13:06.696Z,86.64
2023-01-17T16:15:35.224Z,87.33
2023-01-17T16:18:13.965Z,87.25
2023-01-17T16:20:46.516Z,87.78
2023-01-17T16:23:13.206Z,87.97
2023-01-17T16:25:39.829Z,88.28
2023-01-17T16:28:06.563Z,88.41
2023-01-17T16:30:33.905Z,88.31
2023-01-17T16:33:00.835Z,88.95
2023-01-17T16:35:30.482Z,89.14
2023-01-17T16:37:56.901Z,89.61
2023-01-17T16:40:26.448Z,90.18
2023-01-17T16:42:55.806Z,90.28
2023-01-17T16:45:23.548Z,91.05
2023-01-17T16:47:51.672Z,91.21
2023-01-17T16:50:24.438Z,91.22
2023-01-17T16:52:52.847Z,91.58
2023-01-17T16:55:23.211Z,91.75
2023-01-17T16:57:51.294Z,91.84
2023-01-17T17:00:19.262Z,92.31
2023-01-17T17:02:50.271Z,92.57
2023-01-17T17:05:17.019Z,93.25
2023-01-17T17:07:45.474Z,93.58
2023-01-17T17:10:15.829Z,93.60
2023-01-17T17:12:42.967Z,93.06
2023-01-17T17:15:10.601Z,93.12
2023-01-17T17:17:39.269Z,93.90
2023-01-17T17:20:10.003Z,93.58
2023-01-17T17:22:36.742Z,94.21
2023-01-17T17:25:03.855Z,94.17
2023-01-17T17:27:30.416Z,94.67
2023-01-17T17:29:57.038Z,94.40
2023-01-17T17:32:23.959Z,94.61
2023-01-17T17:34:53.280Z,94.92
2023-01-17T17:37:21.390Z,95.26
2023-01-17T17:39:48.041Z,94.37
2023-01-17T17:42:15.528Z,94.71
2023-01-17T17:44:42.068Z,94.51
2023-01-17T17:47:09.265Z,94.94
2023-01-17T17:49:35.805Z,95.38
2023-01-17T17:52:08.930Z,94.94
2023-01-17T17:54:35.918Z,95.40
2023-01-17T17:57:02.429Z,95.26
2023-01-17T17:59:29.852Z,94.17
2023-01-17T18:01:57.058Z,94.72
2023-01-17T18:04:23.730Z,94.88
2023-01-17T18:06:50.315Z,95.54
2023-01-17T18:09:17.289Z,97.21
2023-01-17T18:11:44.728Z,97.93
2023-01-17T18:14:13.981Z,98.53
2023-01-17T18:16:43.569Z,98.35
2023-01-17T18:19:14.821Z,97.20
2023-01-17T18:21:41.498Z,96.98
2023-01-17T18:24:11.298Z,96.83
2023-01-17T18:26:43.695Z,96.87
2023-01-17T18:29:14.775Z,96.46
2023-01-17T18:31:43.010Z,96.93
2023-01-17T18:34:12.912Z,96.82
2023-01-17T18:36:40.284Z,96.34
2023-01-17T18:39:12.860Z,97.22
2023-01-17T18:41:39.700Z,97.21
2023-01-17T18:44:06.549Z,96.76
2023-01-17T18:46:34.058Z,97.62
2023-01-17T18:49:00.907Z,97.51
2023-01-17T18:51:29.608Z,97.56
2023-01-17T18:53:56.288Z,96.96
2023-01-17T18:56:23.056Z,97.33
2023-01-17T18:58:50.667Z,96.87
2023-01-17T19:01:20.543Z,96.78
2023-01-17T19:03:49.263Z,96.84
2023-01-17T19:06:20.280Z,96.54
2023-01-17T19:08:49.201Z,96.17
2023-01-17T19:11:15.766Z,96.88
2023-01-17T19:13:42.365Z,97.17
2023-01-17T19:16:14.312Z,96.72
2023-01-17T19:18:41.380Z,97.12
2023-01-17T19:21:14.112Z,97.27
2023-01-17T19:23:41.360Z,96.85
2023-01-17T19:26:09.358Z,96.75
2023-01-17T19:28:41.521Z,96.13
2023-01-17T19:31:10.830Z,96.92
2023-01-17T19:33:39.660Z,96.74
2023-01-17T19:36:09.105Z,97.10
2023-01-17T19:38:37.032Z,98.12
2023-01-17T19:41:26.503Z,98.01
2023-01-17T19:43:54.278Z,98.48
2023-01-17T19:46:22.215Z,98.18
2023-01-17T19:48:48.877Z,98.04
2023-01-17T19:51:16.728Z,97.57
2023-01-17T19:53:43.389Z,98.21
2023-01-17T19:56:11.951Z,98.12
2023-01-17T19:58:38.879Z,97.48
2023-01-17T20:01:09.733Z,96.79
2023-01-17T20:03:37.672Z,97.54
2023-01-17T20:06:09.393Z,98.42
2023-01-17T20:08:36.761Z,98.53
2023-01-17T20:11:09.995Z,97.63
2023-01-17T20:13:37.076Z,98.01
2023-01-17T20:16:09.031Z,97.66
2023-01-17T20:18:36.528Z,97.62
2023-01-17T20:21:20.745Z,97.78
2023-01-17T20:23:49.046Z,97.30
2023-01-17T20:26:18.392Z,98.17
2023-01-17T20:28:47.087Z,98.29
2023-01-17T20:31:16.356Z,98.13
2023-01-17T20:33:45.143Z,98.21
2023-01-17T20:36:14.936Z,98.00
2023-01-17T20:38:45.419Z,98.20
2023-01-17T20:41:13.503Z,97.67
2023-01-17T20:43:44.496Z,97.59
2023-01-17T20:46:12.002Z,97.16
2023-01-17T20:48:44.988Z,97.02
2023-01-17T20:51:12.541Z,97.40
2023-01-17T20:53:41.612Z,96.88
2023-01-17T20:56:08.784Z,97.38
2023-01-17T20:58:36.495Z,97.83
2023-01-17T21:01:03.257Z,97.79
2023-01-17T21:03:30.139Z,97.26
2023-01-17T21:06:05.893Z,97.18
2023-01-17T21:08:34.680Z,97.32
2023-01-17T21:11:01.678Z,97.74
2023-01-17T21:13:28.347Z,97.67
2023-01-17T21:15:55.192Z,98.18
2023-01-17T21:18:24.105Z,97.76
2023-01-17T21:20:51.072Z,97.94
2023-01-17T21:23:18.363Z,97.92
2023-01-17T21:25:55.812Z,97.36
2023-01-17T21:28:25.344Z,97.25
2023-01-17T21:30:55.683Z,97.41
2023-01-17T21:33:24.625Z,97.01
2023-01-17T21:35:51.850Z,97.22
2023-01-17T21:38:19.013Z,96.97
2023-01-17T21:40:45.911Z,97.50
2023-01-17T21:43:13.134Z,97.59
2023-01-17T21:45:41.065Z,97.59
2023-01-17T21:48:12.161Z,97.77
2023-01-17T21:50:39.149Z,97.78
2023-01-17T21:53:05.822Z,97.66
2023-01-17T21:55:51.010Z,97.53
2023-01-17T21:58:36.318Z,97.53
2023-01-17T22:01:16.100Z,97.47
2023-01-17T22:03:43.769Z,97.34
2023-01-17T22:06:10.331Z,97.55
2023-01-17T22:08:37.347Z,97.82
2023-01-17T22:11:10.921Z,97.37
2023-01-17T22:13:39.164Z,97.64
2023-01-17T22:16:08.650Z,97.68
2023-01-17T22:18:37.067Z,97.54
2023-01-17T22:21:07.229Z,97.49
2023-01-17T22:23:34.940Z,96.99
2023-01-17T22:26:06.852Z,97.05
2023-01-17T22:28:33.824Z,97.12
2023-01-17T22:31:08.213Z,96.93
2023-01-17T22:33:36.218Z,96.95
2023-01-17T22:36:03.026Z,97.32
2023-01-17T22:38:29.989Z,96.81
2023-01-17T22:41:06.834Z,98.19
2023-01-17T22:43:38.262Z,97.60
2023-01-17T22:46:06.585Z,96.72
2023-01-17T22:48:33.912Z,96.57
2023-01-17T22:51:02.441Z,96.78
2023-01-17T22:53:29.912Z,96.58
2023-01-17T22:56:05.755Z,96.13
2023-01-17T22:58:34.000Z,96.34
2023-01-17T23:01:11.493Z,95.94
2023-01-17T23:03:40.803Z,96.02
2023-01-17T23:06:12.416Z,96.69
2023-01-17T23:08:41.505Z,97.23
2023-01-17T23:11:43.639Z,98.79
2023-01-17T23:14:21.138Z,98.94
2023-01-17T23:17:10.304Z,98.69
2023-01-17T23:19:39.192Z,99.36
2023-01-17T23:22:21.319Z,99.03
2023-01-17T23:24:49.232Z,98.99
2023-01-17T23:27:48.418Z,98.61
2023-01-17T23:30:28.655Z,98.32
2023-01-17T23:32:58.465Z,98.66
2023-01-17T23:35:27.651Z,98.38
2023-01-17T23:38:13.405Z,100.00
2023-01-17T23:40:41.029Z,100.00
2023-01-17T23:43:23.839Z,100.00
2023-01-17T23:45:54.737Z,100.00
2023-01-17T23:48:24.628Z,100.00
2023-01-17T23:50:51.826Z,100.00
2023-01-17T23:53:24.108Z,100.00
2023-01-17T23:55:53.689Z,100.00
2023-01-17T23:58:21.085Z,100.00
